createdAt,value
2019-01-18T00:01:26.528Z,-8.70
2019-01-18T00:04:16.731Z,-8.75
2019-01-18T00:07:06.675Z,-8.57
2019-01-18T00:09:56.050Z,-8.67
2019-01-18T00:12:47.943Z,-8.69
2019-01-18T00:15:38.710Z,-8.78
2019-01-18T00:18:28.105Z,-9.02
2019-01-18T00:21:17.988Z,-8.74
2019-01-18T00:24:12.804Z,-8.57
2019-01-18T00:27:02.611Z,-8.70
2019-01-18T00:29:51.992Z,-8.56
2019-01-18T00:32:41.861Z,-8.63
2019-01-18T00:35:30.849Z,-8.70
2019-01-18T00:38:20.709Z,-8.94
2019-01-18T00:41:10.316Z,-8.69
2019-01-18T00:43:59.152Z,-8.72
2019-01-18T00:46:48.528Z,-8.86
2019-01-18T00:49:38.567Z,-9.21
2019-01-18T00:52:29.940Z,-9.29
2019-01-18T00:55:27.933Z,-9.42
2019-01-18T00:58:16.959Z,-9.24
2019-01-18T01:01:08.510Z,-9.55
2019-01-18T01:03:58.023Z,-9.80
2019-01-18T01:06:47.411Z,-9.80
2019-01-18T01:09:36.992Z,-9.57
2019-01-18T01:12:30.323Z,-9.83
2019-01-18T01:15:22.254Z,-10.08
2019-01-18T01:18:11.631Z,-10.40
2019-01-18T01:21:01.625Z,-10.09
2019-01-18T01:23:51.361Z,-9.82
2019-01-18T01:26:41.117Z,-9.82
2019-01-18T01:29:30.715Z,-9.89
2019-01-18T01:32:20.091Z,-9.68
2019-01-18T01:35:10.392Z,-9.54
2019-01-18T01:38:00.228Z,-9.37
2019-01-18T01:40:50.063Z,-9.13
2019-01-18T01:43:40.185Z,-9.09
2019-01-18T01:46:29.826Z,-9.11
2019-01-18T01:49:19.483Z,-9.65
2019-01-18T01:52:12.266Z,-10.22
2019-01-18T01:55:02.233Z,-10.46
2019-01-18T01:57:52.350Z,-10.46
2019-01-18T02:00:42.554Z,-10.44
2019-01-18T02:03:32.894Z,-10.19
2019-01-18T02:06:22.513Z,-10.18
2019-01-18T02:09:12.436Z,-10.25
2019-01-18T02:12:01.546Z,-10.11
2019-01-18T02:14:52.278Z,-10.25
2019-01-18T02:17:41.860Z,-10.22
2019-01-18T02:20:31.830Z,-10.11
2019-01-18T02:23:20.665Z,-10.11
2019-01-18T02:26:10.307Z,-9.75
2019-01-18T02:29:00.131Z,-9.66
2019-01-18T02:31:50.204Z,-9.85
2019-01-18T02:34:40.332Z,-9.64
2019-01-18T02:37:29.235Z,-9.93
2019-01-18T02:40:19.003Z,-9.87
2019-01-18T02:43:09.341Z,-9.87
2019-01-18T02:45:59.675Z,-9.92
2019-01-18T02:48:49.644Z,-10.30
2019-01-18T02:51:40.877Z,-10.38
2019-01-18T02:54:30.590Z,-10.37
2019-01-18T02:57:20.675Z,-10.08
2019-01-18T03:00:16.064Z,-10.39
2019-01-18T03:03:06.320Z,-10.52
2019-01-18T03:06:00.014Z,-10.17
2019-01-18T03:08:52.831Z,-10.02
2019-01-18T03:11:41.946Z,-10.14
2019-01-18T03:14:31.427Z,-10.65
2019-01-18T03:17:21.181Z,-10.64
2019-01-18T03:20:13.048Z,-10.68
2019-01-18T03:23:02.934Z,-11.00
2019-01-18T03:25:55.732Z,-11.20
2019-01-18T03:28:45.051Z,-10.94
2019-01-18T03:31:34.984Z,-10.84
2019-01-18T03:34:24.850Z,-10.85
2019-01-18T03:37:14.261Z,-10.92
2019-01-18T03:40:05.667Z,-11.04
2019-01-18T03:42:55.718Z,-10.99
2019-01-18T03:45:45.065Z,-10.72
2019-01-18T03:48:34.495Z,-10.78
2019-01-18T03:51:24.654Z,-11.02
2019-01-18T03:54:14.077Z,-10.97
2019-01-18T04:00:40.680Z,-10.93
2019-01-18T04:03:30.001Z,-11.17
2019-01-18T04:06:19.385Z,-11.20
2019-01-18T04:09:09.582Z,-10.91
2019-01-18T04:11:58.832Z,-10.99
2019-01-18T04:14:48.922Z,-10.79
2019-01-18T04:17:38.456Z,-11.34
2019-01-18T04:20:28.247Z,-10.90
2019-01-18T04:23:18.556Z,-11.09
2019-01-18T04:26:08.566Z,-10.80
2019-01-18T04:28:59.710Z,-11.12
2019-01-18T04:31:49.432Z,-10.82
2019-01-18T04:34:40.244Z,-11.08
2019-01-18T04:37:31.754Z,-10.89
2019-01-18T04:40:24.555Z,-10.83
2019-01-18T04:43:14.307Z,-10.89
2019-01-18T04:46:03.836Z,-11.05
2019-01-18T04:48:53.813Z,-10.95
2019-01-18T04:51:43.380Z,-10.89
2019-01-18T04:54:32.761Z,-10.82
2019-01-18T04:57:22.750Z,-10.65
2019-01-18T05:00:18.337Z,-10.52
2019-01-18T05:03:07.743Z,-10.52
2019-01-18T05:05:57.138Z,-10.77
2019-01-18T05:08:47.255Z,-10.88
2019-01-18T05:11:36.993Z,-10.97
2019-01-18T05:14:26.063Z,-10.01
2019-01-18T05:17:17.289Z,-10.14
2019-01-18T05:20:10.607Z,-11.26
2019-01-18T05:23:00.451Z,-11.14
2019-01-18T05:25:49.952Z,-11.51
2019-01-18T05:29:16.625Z,-11.27
2019-01-18T05:32:08.665Z,-11.12
2019-01-18T05:35:02.329Z,-11.03
2019-01-18T05:37:52.191Z,-11.06
2019-01-18T05:40:41.809Z,-10.87
2019-01-18T05:43:31.182Z,-11.05
2019-01-18T05:46:20.726Z,-11.12
2019-01-18T05:49:09.635Z,-10.76
2019-01-18T05:51:59.206Z,-10.83
2019-01-18T05:54:48.604Z,-10.72
2019-01-18T05:57:39.000Z,-10.81
2019-01-18T06:00:55.404Z,-11.04
2019-01-18T06:03:42.482Z,-10.68
2019-01-18T06:06:31.655Z,-10.75
2019-01-18T06:09:21.550Z,-10.79
2019-01-18T06:12:11.067Z,-11.27
2019-01-18T06:15:00.638Z,-11.05
2019-01-18T06:17:50.550Z,-10.87
2019-01-18T06:20:39.962Z,-11.28
2019-01-18T06:23:29.325Z,-11.41
2019-01-18T06:26:18.767Z,-10.91
2019-01-18T06:29:08.629Z,-10.56
2019-01-18T06:31:59.007Z,-10.20
2019-01-18T06:34:49.365Z,-10.17
2019-01-18T06:37:38.619Z,-9.67
2019-01-18T06:40:28.127Z,-9.58
2019-01-18T06:43:17.432Z,-9.58
2019-01-18T06:46:07.212Z,-9.49
2019-01-18T06:48:57.042Z,-9.67
2019-01-18T06:51:46.372Z,-10.44
2019-01-18T06:54:35.907Z,-10.36
2019-01-18T06:57:25.466Z,-10.17
2019-01-18T07:00:34.960Z,-10.20
2019-01-18T07:03:24.555Z,-10.20
2019-01-18T07:06:14.434Z,-10.20
2019-01-18T07:09:06.099Z,-10.07
2019-01-18T07:11:55.416Z,-10.07
2019-01-18T07:14:45.607Z,-10.07
2019-01-18T07:17:35.146Z,-10.51
2019-01-18T07:20:25.569Z,-10.13
2019-01-18T07:23:15.396Z,-9.63
2019-01-18T07:26:05.585Z,-9.66
2019-01-18T07:28:55.069Z,-9.19
2019-01-18T07:31:44.523Z,-8.82
2019-01-18T07:34:35.156Z,-8.82
2019-01-18T07:37:24.845Z,-8.75
2019-01-18T07:40:14.808Z,-8.60
2019-01-18T07:43:05.090Z,-8.91
2019-01-18T07:45:54.701Z,-8.97
2019-01-18T07:48:44.676Z,-8.62
2019-01-18T07:51:37.107Z,-8.14
2019-01-18T07:54:26.050Z,-7.92
2019-01-18T07:57:15.676Z,-7.63
2019-01-18T08:00:08.573Z,-7.23
2019-01-18T08:02:58.242Z,-6.95
2019-01-18T08:05:47.951Z,-6.52
2019-01-18T08:08:38.576Z,-6.09
2019-01-18T08:11:28.358Z,-5.73
2019-01-18T08:14:17.518Z,-5.57
2019-01-18T08:17:07.194Z,-5.52
2019-01-18T08:19:56.838Z,-5.21
2019-01-18T08:22:46.652Z,-5.04
2019-01-18T08:25:35.746Z,-5.14
2019-01-18T08:28:25.425Z,-5.47
2019-01-18T08:31:14.750Z,-4.72
2019-01-18T08:34:05.119Z,-4.44
2019-01-18T08:36:56.724Z,-4.07
2019-01-18T08:39:46.918Z,-3.74
2019-01-18T08:42:36.550Z,-3.67
2019-01-18T08:45:34.846Z,-3.35
2019-01-18T08:48:24.252Z,-3.54
2019-01-18T08:51:13.587Z,-3.05
2019-01-18T08:54:03.664Z,-2.74
2019-01-18T08:56:52.980Z,-2.07
2019-01-18T08:59:42.543Z,-1.66
2019-01-18T09:02:31.364Z,-1.92
2019-01-18T09:05:22.576Z,-2.10
2019-01-18T09:08:12.341Z,-2.57
2019-01-18T09:11:01.869Z,-2.93
2019-01-18T09:13:55.106Z,-3.09
2019-01-18T09:16:44.588Z,-3.15
2019-01-18T09:19:34.508Z,-2.91
2019-01-18T09:22:24.354Z,-2.58
2019-01-18T09:25:13.792Z,-3.07
2019-01-18T09:28:03.422Z,-3.43
2019-01-18T09:30:53.162Z,-3.33
2019-01-18T09:33:42.944Z,-2.92
2019-01-18T09:36:32.529Z,-2.71
2019-01-18T09:39:21.578Z,-2.02
2019-01-18T09:42:11.787Z,-1.58
2019-01-18T09:45:01.415Z,-1.42
2019-01-18T09:47:51.341Z,-2.02
2019-01-18T09:50:41.879Z,-2.21
2019-01-18T09:53:31.828Z,-1.96
2019-01-18T09:56:21.092Z,-1.78
2019-01-18T09:59:10.173Z,-1.49
2019-01-18T10:01:59.605Z,-1.63
2019-01-18T10:04:49.024Z,-1.54
2019-01-18T10:07:38.855Z,-1.46
2019-01-18T10:10:29.013Z,-2.06
2019-01-18T10:13:18.200Z,-2.03
2019-01-18T10:16:07.732Z,-1.53
2019-01-18T10:18:58.538Z,-1.45
2019-01-18T10:21:48.827Z,-1.51
2019-01-18T10:24:38.074Z,-1.25
2019-01-18T10:27:27.454Z,-0.51
2019-01-18T10:30:19.315Z,-0.07
2019-01-18T10:33:08.188Z,-0.06
2019-01-18T10:35:57.946Z,0.18
2019-01-18T10:38:48.971Z,0.25
2019-01-18T10:41:41.083Z,0.18
2019-01-18T10:44:30.696Z,0.37
2019-01-18T10:47:20.183Z,0.66
2019-01-18T10:50:13.273Z,0.85
2019-01-18T10:53:02.921Z,0.93
2019-01-18T10:55:53.487Z,1.09
2019-01-18T10:58:43.802Z,1.22
2019-01-18T11:01:34.061Z,1.44
2019-01-18T11:04:23.223Z,1.44
2019-01-18T11:07:13.352Z,1.21
2019-01-18T11:10:02.868Z,0.62
2019-01-18T11:12:52.373Z,0.80
2019-01-18T11:15:43.522Z,1.08
2019-01-18T11:18:32.200Z,1.19
2019-01-18T11:21:23.053Z,0.77
2019-01-18T11:24:12.871Z,0.70
2019-01-18T11:27:01.810Z,0.92
2019-01-18T11:29:51.348Z,1.26
2019-01-18T11:32:41.404Z,1.51
2019-01-18T11:35:30.998Z,0.94
2019-01-18T11:38:20.860Z,0.38
2019-01-18T11:41:10.906Z,0.41
2019-01-18T11:44:00.798Z,0.30
2019-01-18T11:46:50.217Z,0.36
2019-01-18T11:49:39.655Z,0.47
2019-01-18T11:52:30.113Z,0.54
2019-01-18T11:55:20.020Z,0.77
2019-01-18T11:58:09.463Z,0.88
2019-01-18T12:00:59.357Z,0.84
2019-01-18T12:03:48.666Z,1.23
2019-01-18T12:06:37.803Z,1.48
2019-01-18T12:09:27.301Z,2.01
2019-01-18T12:12:17.141Z,2.24
2019-01-18T12:15:07.828Z,2.67
2019-01-18T12:17:59.376Z,2.94
2019-01-18T12:20:49.908Z,3.04
2019-01-18T12:23:39.338Z,3.26
2019-01-18T12:26:29.082Z,3.51
2019-01-18T12:29:18.757Z,3.50
2019-01-18T12:32:08.258Z,3.67
2019-01-18T12:34:57.606Z,3.63
2019-01-18T12:37:47.900Z,3.82
2019-01-18T12:40:37.207Z,4.06
2019-01-18T12:43:26.772Z,3.85
2019-01-18T12:46:16.920Z,4.36
2019-01-18T12:49:06.710Z,4.25
2019-01-18T12:51:55.847Z,4.33
2019-01-18T12:54:45.675Z,3.80
2019-01-18T12:57:35.521Z,4.01
2019-01-18T13:00:26.190Z,4.41
2019-01-18T13:03:15.587Z,4.21
2019-01-18T13:06:05.339Z,4.57
2019-01-18T13:08:54.511Z,5.08
2019-01-18T13:11:44.692Z,5.63
2019-01-18T13:14:34.173Z,5.68
2019-01-18T13:17:23.142Z,5.52
2019-01-18T13:20:13.881Z,5.24
2019-01-18T13:23:03.542Z,4.93
2019-01-18T13:25:54.001Z,4.61
2019-01-18T13:28:25.157Z,4.70
2019-01-18T13:30:56.452Z,4.12
2019-01-18T13:33:27.549Z,3.43
2019-01-18T13:36:01.774Z,3.74
2019-01-18T13:38:33.875Z,4.11
2019-01-18T13:41:04.820Z,4.23
2019-01-18T13:43:40.246Z,4.71
2019-01-18T13:46:11.798Z,4.34
2019-01-18T13:48:43.208Z,4.38
2019-01-18T13:51:14.578Z,4.55
2019-01-18T13:53:45.533Z,4.23
2019-01-18T13:56:16.504Z,3.58
2019-01-18T13:58:47.989Z,3.83
2019-01-18T14:01:19.885Z,3.60
2019-01-18T14:03:50.885Z,3.33
2019-01-18T14:06:21.823Z,3.18
2019-01-18T14:08:52.803Z,2.98
2019-01-18T14:11:24.238Z,3.06
2019-01-18T14:13:55.702Z,3.16
2019-01-18T14:16:27.677Z,3.19
2019-01-18T14:18:59.513Z,3.06
2019-01-18T14:21:31.374Z,2.83
2019-01-18T14:24:02.408Z,2.80
2019-01-18T14:26:33.916Z,2.90
2019-01-18T14:29:05.077Z,2.67
2019-01-18T14:31:36.473Z,2.80
2019-01-18T14:34:07.642Z,2.49
2019-01-18T14:36:39.030Z,2.72
2019-01-18T14:39:11.599Z,2.42
2019-01-18T14:41:43.566Z,1.96
2019-01-18T14:44:14.837Z,1.97
2019-01-18T14:46:45.987Z,1.85
2019-01-18T14:49:17.429Z,1.64
2019-01-18T14:51:49.162Z,1.37
2019-01-18T14:54:20.189Z,1.06
2019-01-18T14:56:51.817Z,1.32
2019-01-18T14:59:22.943Z,1.18
2019-01-18T15:01:54.575Z,0.99
2019-01-18T15:04:26.090Z,0.87
2019-01-18T15:06:57.218Z,0.60
2019-01-18T15:09:28.222Z,0.85
2019-01-18T15:11:59.655Z,0.78
2019-01-18T15:14:31.006Z,0.69
2019-01-18T15:17:03.764Z,0.38
2019-01-18T15:19:35.033Z,0.53
2019-01-18T15:22:06.352Z,0.50
2019-01-18T15:24:37.460Z,0.53
2019-01-18T15:27:08.523Z,0.74
2019-01-18T15:29:39.625Z,0.50
2019-01-18T15:32:11.169Z,0.35
2019-01-18T15:34:42.092Z,0.20
2019-01-18T15:37:13.343Z,0.21
2019-01-18T15:39:44.429Z,-0.01
2019-01-18T15:42:18.270Z,0.20
2019-01-18T15:44:49.353Z,0.33
2019-01-18T15:47:20.415Z,0.33
2019-01-18T15:49:51.465Z,-0.09
2019-01-18T15:52:23.026Z,-0.46
2019-01-18T15:54:54.011Z,-0.49
2019-01-18T15:57:25.105Z,-0.59
2019-01-18T16:00:02.664Z,-0.74
2019-01-18T16:02:34.137Z,-0.90
2019-01-18T16:05:06.551Z,-1.02
2019-01-18T16:07:37.695Z,-1.10
2019-01-18T16:10:10.109Z,-1.10
2019-01-18T16:12:44.070Z,-0.90
2019-01-18T16:15:15.846Z,-0.77
2019-01-18T16:17:47.766Z,-0.48
2019-01-18T16:20:20.629Z,-0.58
2019-01-18T16:22:56.266Z,-0.67
2019-01-18T16:25:29.017Z,-0.40
2019-01-18T16:27:59.993Z,-0.81
2019-01-18T16:30:31.034Z,-1.13
2019-01-18T16:33:02.518Z,-1.24
2019-01-18T16:35:33.635Z,-1.19
2019-01-18T16:38:06.052Z,-1.11
2019-01-18T16:40:37.437Z,-1.11
2019-01-18T16:43:15.431Z,-0.96
2019-01-18T16:45:46.356Z,-0.87
2019-01-18T16:48:17.544Z,-1.19
2019-01-18T16:50:49.042Z,-1.48
2019-01-18T16:53:20.523Z,-1.46
2019-01-18T16:55:51.488Z,-1.64
2019-01-18T16:58:22.944Z,-1.54
2019-01-18T17:00:55.137Z,-1.57
2019-01-18T17:03:30.319Z,-1.43
2019-01-18T17:05:59.335Z,-1.41
2019-01-18T17:08:30.629Z,-1.27
2019-01-18T17:11:01.628Z,-1.40
2019-01-18T17:13:36.969Z,-1.24
2019-01-18T17:16:08.660Z,-1.35
2019-01-18T17:18:41.096Z,-1.42
2019-01-18T17:21:13.894Z,-1.08
2019-01-18T17:23:45.567Z,-1.34
2019-01-18T17:26:16.988Z,-1.65
2019-01-18T17:28:47.959Z,-2.08
2019-01-18T17:31:19.466Z,-1.62
2019-01-18T17:33:50.530Z,-1.67
2019-01-18T17:36:46.913Z,-1.85
2019-01-18T17:39:39.854Z,-1.87
2019-01-18T17:42:25.356Z,-1.80
2019-01-18T17:45:42.156Z,-1.84
2019-01-18T17:48:41.941Z,-1.91
2019-01-18T17:51:42.012Z,-1.85
2019-01-18T17:54:57.208Z,-1.83
2019-01-18T17:58:04.561Z,-1.77
2019-01-18T18:01:17.253Z,-2.06
2019-01-18T18:04:22.184Z,-2.02
2019-01-18T18:07:46.043Z,-2.14
2019-01-18T18:10:36.569Z,-2.32
2019-01-18T18:13:31.974Z,-2.16
2019-01-18T18:16:32.356Z,-1.68
2019-01-18T18:19:16.808Z,-2.04
2019-01-18T18:22:32.225Z,-2.06
2019-01-18T18:25:47.050Z,-1.86
2019-01-18T18:29:00.836Z,-2.07
2019-01-18T18:32:16.601Z,-1.95
2019-01-18T18:35:31.577Z,-1.58
2019-01-18T18:38:48.829Z,-0.98
2019-01-18T18:41:56.793Z,-1.83
2019-01-18T18:45:18.942Z,-2.60
2019-01-18T18:48:23.141Z,-2.67
2019-01-18T18:51:34.988Z,-2.61
2019-01-18T18:55:17.070Z,-2.51
2019-01-18T18:58:29.226Z,-2.58
2019-01-18T19:01:55.967Z,-2.56
2019-01-18T19:04:58.374Z,-2.64
2019-01-18T19:08:10.793Z,-2.69
2019-01-18T19:11:19.727Z,-3.04
2019-01-18T19:14:34.473Z,-3.12
2019-01-18T19:17:33.989Z,-3.41
2019-01-18T19:20:35.801Z,-3.35
2019-01-18T19:23:51.535Z,-3.12
2019-01-18T19:27:18.380Z,-3.16
2019-01-18T19:30:26.017Z,-3.18
2019-01-18T19:33:32.776Z,-2.96
2019-01-18T19:36:36.946Z,-3.13
2019-01-18T19:39:33.939Z,-3.76
2019-01-18T19:42:30.622Z,-3.98
2019-01-18T19:45:39.512Z,-3.86
2019-01-18T19:48:38.661Z,-3.77
2019-01-18T19:51:44.901Z,-3.53
2019-01-18T19:54:42.943Z,-3.40
2019-01-18T19:57:49.377Z,-3.44
2019-01-18T20:00:53.862Z,-3.55
2019-01-18T20:03:56.133Z,-3.67
2019-01-18T20:06:54.582Z,-4.12
2019-01-18T20:10:08.509Z,-4.06
2019-01-18T20:13:26.428Z,-3.91
2019-01-18T20:16:18.461Z,-4.44
2019-01-18T20:19:30.476Z,-4.81
2019-01-18T20:22:48.681Z,-4.42
2019-01-18T20:26:07.162Z,-4.27
2019-01-18T20:29:08.868Z,-4.18
2019-01-18T20:32:15.426Z,-4.11
2019-01-18T20:35:21.438Z,-3.80
2019-01-18T20:38:36.992Z,-3.90
2019-01-18T20:41:48.481Z,-4.29
2019-01-18T20:44:56.872Z,-4.18
2019-01-18T20:48:17.160Z,-4.28
2019-01-18T20:51:26.227Z,-4.15
2019-01-18T20:54:38.257Z,-4.09
2019-01-18T20:57:48.814Z,-4.27
2019-01-18T21:00:34.461Z,-4.19
2019-01-18T21:03:41.229Z,-4.28
2019-01-18T21:06:24.932Z,-4.04
2019-01-18T21:09:18.980Z,-3.91
2019-01-18T21:12:17.999Z,-4.05
2019-01-18T21:15:33.478Z,-3.75
2019-01-18T21:18:20.894Z,-3.74
2019-01-18T21:21:21.643Z,-3.67
2019-01-18T21:24:33.101Z,-3.53
2019-01-18T21:27:33.245Z,-3.56
2019-01-18T21:30:44.184Z,-3.49
2019-01-18T21:33:47.785Z,-3.44
2019-01-18T21:36:51.492Z,-3.42
2019-01-18T21:39:51.680Z,-3.50
2019-01-18T21:43:15.894Z,-3.39
2019-01-18T21:46:04.048Z,-3.11
2019-01-18T21:49:11.118Z,-3.04
2019-01-18T21:52:24.600Z,-3.80
2019-01-18T21:55:32.033Z,-3.93
2019-01-18T21:59:05.168Z,-3.99
2019-01-18T22:01:57.280Z,-3.73
2019-01-18T22:05:10.439Z,-3.52
2019-01-18T22:08:08.378Z,-3.63
2019-01-18T22:11:37.631Z,-3.63
2019-01-18T22:14:43.068Z,-3.86
2019-01-18T22:18:04.164Z,-3.41
2019-01-18T22:21:26.693Z,-3.23
2019-01-18T22:24:47.327Z,-3.23
2019-01-18T22:27:55.070Z,-3.03
2019-01-18T22:31:08.329Z,-2.90
2019-01-18T22:34:22.282Z,-2.90
2019-01-18T22:37:14.748Z,-2.90
2019-01-18T22:40:03.109Z,-3.16
2019-01-18T22:43:21.781Z,-2.95
2019-01-18T22:46:18.537Z,-3.13
2019-01-18T22:49:42.411Z,-2.99
2019-01-18T22:52:52.168Z,-2.96
2019-01-18T22:55:47.307Z,-2.79
2019-01-18T22:58:51.461Z,-3.12
2019-01-18T23:02:19.416Z,-2.87
2019-01-18T23:05:08.069Z,-2.81
2019-01-18T23:08:21.849Z,-3.24
2019-01-18T23:11:26.571Z,-3.30
2019-01-18T23:14:53.532Z,-3.62
2019-01-18T23:18:20.600Z,-3.55
2019-01-18T23:21:27.308Z,-3.48
2019-01-18T23:24:16.239Z,-3.28
2019-01-18T23:27:29.171Z,-3.13
2019-01-18T23:30:29.764Z,-3.07
2019-01-18T23:33:45.257Z,-2.97
2019-01-18T23:36:35.367Z,-3.07
2019-01-18T23:39:41.651Z,-2.99
2019-01-18T23:42:52.209Z,-3.05
2019-01-18T23:46:09.402Z,-2.90
2019-01-18T23:49:27.445Z,-2.66
2019-01-18T23:52:28.130Z,-2.66
2019-01-18T23:55:45.634Z,-2.86
2019-01-18T23:58:28.567Z,-2.97
